createdAt,value
2018-12-08T00:02:06.670Z,61.83
2018-12-08T00:04:35.685Z,64.13
2018-12-08T00:07:04.809Z,62.57
2018-12-08T00:09:33.865Z,61.10
2018-12-08T00:12:03.786Z,61.47
2018-12-08T00:14:33.229Z,59.20
2018-12-08T00:17:02.383Z,58.97
2018-12-08T00:19:31.505Z,60.23
2018-12-08T00:22:00.628Z,58.87
2018-12-08T00:24:29.695Z,63.50
2018-12-08T00:26:58.751Z,61.90
2018-12-08T00:29:27.766Z,61.93
2018-12-08T00:31:56.802Z,64.53
2018-12-08T00:34:25.845Z,66.87
2018-12-08T00:36:54.909Z,67.07
2018-12-08T00:39:23.991Z,65.33
2018-12-08T00:41:53.122Z,64.87
2018-12-08T00:44:22.212Z,66.20
2018-12-08T00:46:51.289Z,67.57
2018-12-08T00:49:20.336Z,67.67
2018-12-08T00:51:49.325Z,69.00
2018-12-08T00:54:18.366Z,72.03
2018-12-08T00:56:47.521Z,73.73
2018-12-08T00:59:16.750Z,71.63
2018-12-08T01:01:45.834Z,74.20
2018-12-08T01:04:15.948Z,73.90
2018-12-08T01:06:46.085Z,73.30
2018-12-08T01:09:15.174Z,70.43
2018-12-08T01:11:44.261Z,76.60
2018-12-08T01:14:13.445Z,69.33
2018-12-08T01:16:42.569Z,70.33
2018-12-08T01:19:11.667Z,67.23
2018-12-08T01:21:40.787Z,69.17
2018-12-08T01:24:09.836Z,66.43
2018-12-08T01:26:39.087Z,63.33
2018-12-08T01:29:08.117Z,62.53
2018-12-08T01:31:37.138Z,61.03
2018-12-08T01:34:06.165Z,60.53
2018-12-08T01:36:35.197Z,57.63
2018-12-08T01:39:06.727Z,55.37
2018-12-08T01:41:36.806Z,53.77
2018-12-08T01:44:05.809Z,53.90
2018-12-08T01:46:34.904Z,57.33
2018-12-08T01:49:04.275Z,54.63
2018-12-08T01:51:33.334Z,54.43
2018-12-08T01:54:02.419Z,54.83
2018-12-08T01:56:32.514Z,53.33
2018-12-08T01:59:01.623Z,52.17
2018-12-08T02:01:30.790Z,51.43
2018-12-08T02:04:00.116Z,52.47
2018-12-08T02:06:29.508Z,49.73
2018-12-08T02:08:59.556Z,49.17
2018-12-08T02:11:30.708Z,51.67
2018-12-08T02:13:59.851Z,48.93
2018-12-08T02:16:29.449Z,48.60
2018-12-08T02:18:58.627Z,47.20
2018-12-08T02:21:27.783Z,47.67
2018-12-08T02:23:57.065Z,47.27
2018-12-08T02:26:26.141Z,47.27
2018-12-08T02:28:55.278Z,44.43
2018-12-08T02:31:24.501Z,46.17
2018-12-08T02:33:53.747Z,47.83
2018-12-08T02:36:22.830Z,46.77
2018-12-08T02:38:53.119Z,44.33
2018-12-08T02:41:22.288Z,46.67
2018-12-08T02:43:51.398Z,47.83
2018-12-08T02:46:20.465Z,45.77
2018-12-08T02:48:49.604Z,44.50
2018-12-08T02:51:18.850Z,43.47
2018-12-08T02:53:47.868Z,45.60
2018-12-08T02:56:16.989Z,43.63
2018-12-08T02:58:46.098Z,43.23
2018-12-08T03:01:15.285Z,44.40
2018-12-08T03:03:44.369Z,44.40
2018-12-08T03:06:13.464Z,43.97
2018-12-08T03:08:42.704Z,42.50
2018-12-08T03:11:11.883Z,45.60
2018-12-08T03:13:41.010Z,43.33
2018-12-08T03:16:10.145Z,43.27
2018-12-08T03:18:39.208Z,42.33
2018-12-08T03:21:08.300Z,43.03
2018-12-08T03:23:37.416Z,41.90
2018-12-08T03:26:06.446Z,40.07
2018-12-08T03:28:35.549Z,40.33
2018-12-08T03:31:04.570Z,40.73
2018-12-08T03:33:33.792Z,40.60
2018-12-08T03:36:02.879Z,41.57
2018-12-08T03:38:32.046Z,42.13
2018-12-08T03:41:01.128Z,41.47
2018-12-08T03:43:30.219Z,38.77
2018-12-08T03:45:59.291Z,36.00
2018-12-08T03:48:28.327Z,38.50
2018-12-08T03:50:57.409Z,38.03
2018-12-08T03:53:28.479Z,36.73
2018-12-08T03:55:57.913Z,39.50
2018-12-08T03:58:27.064Z,36.90
2018-12-08T04:00:56.152Z,36.70
2018-12-08T04:03:26.249Z,37.10
2018-12-08T04:05:55.372Z,34.27
2018-12-08T04:08:24.497Z,35.77
2018-12-08T04:10:53.625Z,35.43
2018-12-08T04:13:23.824Z,36.37
2018-12-08T04:15:52.887Z,35.77
2018-12-08T04:18:21.981Z,33.57
2018-12-08T04:20:50.989Z,34.57
2018-12-08T04:23:20.049Z,35.00
2018-12-08T04:25:49.054Z,33.67
2018-12-08T04:28:18.027Z,36.97
2018-12-08T04:30:47.063Z,35.73
2018-12-08T04:33:16.210Z,34.90
2018-12-08T04:35:45.298Z,35.53
2018-12-08T04:38:14.333Z,35.73
2018-12-08T04:40:43.443Z,36.33
2018-12-08T04:43:12.530Z,34.57
2018-12-08T04:45:41.684Z,37.37
2018-12-08T04:48:10.842Z,37.53
2018-12-08T04:50:39.865Z,36.97
2018-12-08T04:53:08.967Z,37.27
2018-12-08T04:55:38.351Z,37.13
2018-12-08T04:58:07.318Z,38.97
2018-12-08T05:00:36.333Z,40.80
2018-12-08T05:03:05.644Z,39.63
2018-12-08T05:05:34.860Z,40.43
2018-12-08T05:08:03.912Z,42.53
2018-12-08T05:10:33.239Z,43.90
2018-12-08T05:13:02.238Z,42.57
2018-12-08T05:15:31.241Z,44.47
2018-12-08T05:18:00.402Z,47.30
2018-12-08T05:20:29.774Z,45.17
2018-12-08T05:22:58.813Z,49.27
2018-12-08T05:25:27.988Z,48.90
2018-12-08T05:27:57.018Z,49.13
2018-12-08T05:30:26.149Z,47.77
2018-12-08T05:32:55.324Z,51.03
2018-12-08T05:35:24.513Z,48.90
2018-12-08T05:37:53.834Z,48.23
2018-12-08T05:40:22.902Z,47.77
2018-12-08T05:42:51.966Z,48.57
2018-12-08T05:45:21.141Z,50.37
2018-12-08T05:47:50.158Z,52.47
2018-12-08T05:50:19.306Z,50.23
2018-12-08T05:52:48.390Z,49.47
2018-12-08T05:55:17.577Z,52.10
2018-12-08T05:57:46.564Z,51.17
2018-12-08T06:00:15.657Z,52.83
2018-12-08T06:02:44.686Z,52.23
2018-12-08T06:05:13.750Z,51.33
2018-12-08T06:07:42.756Z,52.07
2018-12-08T06:10:11.818Z,50.47
2018-12-08T06:12:40.917Z,51.20
2018-12-08T06:15:10.054Z,50.93
2018-12-08T06:17:39.170Z,46.37
2018-12-08T06:20:08.332Z,48.33
2018-12-08T06:22:37.342Z,49.63
2018-12-08T06:25:08.258Z,52.63
2018-12-08T06:27:53.565Z,51.10
2018-12-08T06:30:22.574Z,48.70
2018-12-08T06:32:51.556Z,47.17
2018-12-08T06:35:20.545Z,46.20
2018-12-08T06:37:49.586Z,47.50
2018-12-08T06:40:18.580Z,47.73
2018-12-08T06:42:47.715Z,46.97
2018-12-08T06:45:17.729Z,44.70
2018-12-08T06:47:46.754Z,43.17
2018-12-08T06:50:15.742Z,41.57
2018-12-08T06:52:44.783Z,43.53
2018-12-08T06:55:13.826Z,41.40
2018-12-08T06:57:42.901Z,41.27
2018-12-08T07:00:12.083Z,39.17
2018-12-08T07:02:41.088Z,39.83
2018-12-08T07:05:10.116Z,40.40
2018-12-08T07:07:39.146Z,42.07
2018-12-08T07:10:08.310Z,42.37
2018-12-08T07:12:37.397Z,37.23
2018-12-08T07:15:07.080Z,34.53
2018-12-08T07:17:36.079Z,36.17
2018-12-08T07:20:05.975Z,36.37
2018-12-08T07:22:35.025Z,37.17
2018-12-08T07:25:04.103Z,36.07
2018-12-08T07:27:33.091Z,34.17
2018-12-08T07:30:02.093Z,34.60
2018-12-08T07:32:38.690Z,32.33
2018-12-08T07:35:02.377Z,32.53
2018-12-08T07:37:31.379Z,27.20
2018-12-08T07:40:00.654Z,30.03
2018-12-08T07:42:29.644Z,28.13
2018-12-08T07:44:58.671Z,26.83
2018-12-08T07:47:27.831Z,27.90
2018-12-08T07:49:56.852Z,25.90
2018-12-08T07:52:25.962Z,27.83
2018-12-08T07:54:55.078Z,25.83
2018-12-08T07:57:24.251Z,24.50
2018-12-08T07:59:53.404Z,18.97
2018-12-08T08:02:22.426Z,19.63
2018-12-08T08:04:51.391Z,16.20
2018-12-08T08:07:20.642Z,15.77
2018-12-08T08:09:50.612Z,10.87
2018-12-08T08:12:19.837Z,12.07
2018-12-08T08:14:49.055Z,10.50
2018-12-08T08:17:18.162Z,11.30
2018-12-08T08:19:47.256Z,9.40
2018-12-08T08:22:16.536Z,10.17
2018-12-08T08:24:45.770Z,9.43
2018-12-08T08:27:14.741Z,8.17
2018-12-08T08:29:43.842Z,8.90
2018-12-08T08:32:12.879Z,15.40
2018-12-08T08:34:42.101Z,9.77
2018-12-08T08:37:11.074Z,7.83
2018-12-08T08:39:40.154Z,7.73
2018-12-08T08:42:09.125Z,7.47
2018-12-08T08:44:38.157Z,6.90
2018-12-08T08:47:07.141Z,5.70
2018-12-08T08:49:36.268Z,5.43
2018-12-08T08:52:05.341Z,4.67
2018-12-08T08:54:34.321Z,5.13
2018-12-08T08:57:03.390Z,4.93
2018-12-08T08:59:32.425Z,9.60
2018-12-08T09:02:01.453Z,4.43
2018-12-08T09:04:30.488Z,5.73
2018-12-08T09:06:59.566Z,4.10
2018-12-08T09:09:28.597Z,4.50
2018-12-08T09:11:57.558Z,3.83
2018-12-08T09:14:27.130Z,4.17
2018-12-08T09:16:56.297Z,3.63
2018-12-08T09:19:25.353Z,4.07
2018-12-08T09:21:54.385Z,4.10
2018-12-08T09:24:23.632Z,4.50
2018-12-08T09:26:52.717Z,4.47
2018-12-08T09:29:21.924Z,4.00
2018-12-08T09:31:50.998Z,5.60
2018-12-08T09:34:20.035Z,4.73
2018-12-08T09:36:49.098Z,4.80
2018-12-08T09:39:18.090Z,4.47
2018-12-08T09:41:47.057Z,4.67
2018-12-08T09:44:16.124Z,4.37
2018-12-08T09:46:45.237Z,3.87
2018-12-08T09:49:14.333Z,4.07
2018-12-08T09:51:43.385Z,4.07
2018-12-08T09:54:12.393Z,3.93
2018-12-08T09:56:41.405Z,4.53
2018-12-08T09:59:10.429Z,5.30
2018-12-08T10:01:39.434Z,3.90
2018-12-08T10:04:08.481Z,4.03
2018-12-08T10:06:37.557Z,3.73
2018-12-08T10:09:07.662Z,3.90
2018-12-08T10:11:36.733Z,4.17
2018-12-08T10:14:05.895Z,4.30
2018-12-08T10:16:34.960Z,5.17
2018-12-08T10:19:04.014Z,4.10
2018-12-08T10:21:33.026Z,4.23
2018-12-08T10:24:02.206Z,3.93
2018-12-08T10:26:31.264Z,4.70
2018-12-08T10:29:00.418Z,4.80
2018-12-08T10:31:29.605Z,4.60
2018-12-08T10:33:58.617Z,5.30
2018-12-08T10:36:27.634Z,4.60
2018-12-08T10:38:56.677Z,4.50
2018-12-08T10:41:25.682Z,3.93
2018-12-08T10:43:54.845Z,5.07
2018-12-08T10:46:25.044Z,3.93
2018-12-08T10:48:54.394Z,4.10
2018-12-08T10:51:23.482Z,3.97
2018-12-08T10:53:54.444Z,3.57
2018-12-08T10:56:23.530Z,4.07
2018-12-08T10:58:52.589Z,4.00
2018-12-08T11:01:27.302Z,4.17
2018-12-08T11:03:56.488Z,4.27
2018-12-08T11:06:25.536Z,4.30
2018-12-08T11:08:54.625Z,4.53
2018-12-08T11:11:23.640Z,3.97
2018-12-08T11:13:52.800Z,4.53
2018-12-08T11:16:21.990Z,6.73
2018-12-08T11:18:51.565Z,7.27
2018-12-08T11:21:20.692Z,7.27
2018-12-08T11:23:49.756Z,5.53
2018-12-08T11:26:18.877Z,7.87
2018-12-08T11:28:47.878Z,7.80
2018-12-08T11:31:16.933Z,7.03
2018-12-08T11:33:46.011Z,5.90
2018-12-08T11:36:15.093Z,5.03
2018-12-08T11:38:44.176Z,5.83
2018-12-08T11:41:13.293Z,5.37
2018-12-08T11:43:42.525Z,5.07
2018-12-08T11:46:11.581Z,5.00
2018-12-08T11:48:40.664Z,5.17
2018-12-08T11:51:09.629Z,5.53
2018-12-08T11:53:38.724Z,6.63
2018-12-08T11:56:07.862Z,6.00
2018-12-08T11:58:37.044Z,6.00
2018-12-08T12:01:06.074Z,5.53
2018-12-08T12:03:35.213Z,6.30
2018-12-08T12:06:04.213Z,6.03
2018-12-08T12:08:33.389Z,6.77
2018-12-08T12:11:02.473Z,6.03
2018-12-08T12:13:31.909Z,5.37
2018-12-08T12:16:00.901Z,5.90
2018-12-08T12:18:30.029Z,5.33
2018-12-08T12:20:59.064Z,5.63
2018-12-08T12:23:28.093Z,5.07
2018-12-08T12:25:57.116Z,6.00
2018-12-08T12:28:26.098Z,5.83
2018-12-08T12:30:55.252Z,5.73
2018-12-08T12:33:24.274Z,5.10
2018-12-08T12:35:53.333Z,5.50
2018-12-08T12:38:22.330Z,4.97
2018-12-08T12:40:51.421Z,5.40
2018-12-08T12:43:20.608Z,5.40
2018-12-08T12:45:49.796Z,5.83
2018-12-08T12:48:18.809Z,5.67
2018-12-08T12:50:47.839Z,5.73
2018-12-08T12:53:16.913Z,5.30
2018-12-08T12:55:46.017Z,5.07
2018-12-08T12:58:15.106Z,5.43
2018-12-08T13:00:44.089Z,5.97
2018-12-08T13:03:13.184Z,6.13
2018-12-08T13:05:42.213Z,6.10
2018-12-08T13:08:11.296Z,6.00
2018-12-08T13:10:40.355Z,6.87
2018-12-08T13:13:09.447Z,6.73
2018-12-08T13:15:38.441Z,6.57
2018-12-08T13:18:07.547Z,6.70
2018-12-08T13:20:36.574Z,6.10
2018-12-08T13:23:05.564Z,5.73
2018-12-08T13:25:34.614Z,6.23
2018-12-08T13:28:03.594Z,6.40
2018-12-08T13:30:32.592Z,6.60
2018-12-08T13:33:01.645Z,5.93
2018-12-08T13:35:53.335Z,6.43
2018-12-08T13:38:23.409Z,6.87
2018-12-08T13:40:52.656Z,7.40
2018-12-08T13:43:21.640Z,6.93
2018-12-08T13:45:50.787Z,7.00
2018-12-08T13:48:21.804Z,8.30
2018-12-08T13:50:51.399Z,7.80
2018-12-08T13:53:20.507Z,8.50
2018-12-08T13:55:49.632Z,6.93
2018-12-08T13:58:19.697Z,7.40
2018-12-08T14:00:48.750Z,6.53
2018-12-08T14:03:17.746Z,6.70
2018-12-08T14:05:46.757Z,6.97
2018-12-08T14:08:15.854Z,7.43
2018-12-08T14:10:44.901Z,8.17
2018-12-08T14:13:13.968Z,8.67
2018-12-08T14:15:42.973Z,10.00
2018-12-08T14:18:12.049Z,10.33
2018-12-08T14:20:41.290Z,10.37
2018-12-08T14:23:10.391Z,16.43
2018-12-08T14:25:39.361Z,19.67
2018-12-08T14:28:08.681Z,17.70
2018-12-08T14:40:22.781Z,15.27
2018-12-08T14:47:44.118Z,13.97
2018-12-08T14:50:14.125Z,15.43
2018-12-08T14:52:43.599Z,13.03
2018-12-08T14:55:13.310Z,11.67
2018-12-08T14:57:42.643Z,10.80
2018-12-08T15:00:12.845Z,11.27
2018-12-08T15:02:42.198Z,12.10
2018-12-08T15:05:11.779Z,13.77
2018-12-08T15:07:41.066Z,15.17
2018-12-08T15:10:12.272Z,15.10
2018-12-08T15:12:41.653Z,16.33
2018-12-08T15:15:11.420Z,13.27
2018-12-08T15:17:40.926Z,13.17
2018-12-08T15:20:10.573Z,13.93
2018-12-08T15:22:40.047Z,13.50
2018-12-08T15:25:10.175Z,17.13
2018-12-08T15:27:39.643Z,20.07
2018-12-08T15:30:10.196Z,46.20
2018-12-08T15:32:39.537Z,36.53
2018-12-08T15:35:10.517Z,43.20
2018-12-08T15:37:40.462Z,70.00
2018-12-08T15:40:10.644Z,55.37
2018-12-08T15:42:40.275Z,34.50
2018-12-08T15:45:10.934Z,48.87
2018-12-08T15:47:40.578Z,44.67
2018-12-08T15:50:10.615Z,58.93
2018-12-08T15:52:39.930Z,56.93
2018-12-08T15:55:08.945Z,44.47
2018-12-08T15:57:38.127Z,44.27
2018-12-08T16:00:09.937Z,27.23
2018-12-08T16:02:39.150Z,23.40
2018-12-08T16:05:08.558Z,16.63
2018-12-08T16:07:37.601Z,15.43
2018-12-08T16:10:07.562Z,14.83
2018-12-08T16:12:36.714Z,18.50
2018-12-08T16:15:08.285Z,17.50
2018-12-08T16:17:37.526Z,18.13
2018-12-08T16:20:09.853Z,16.17
2018-12-08T16:22:39.023Z,15.83
2018-12-08T16:25:08.064Z,15.43
2018-12-08T16:27:37.311Z,16.20
2018-12-08T16:30:08.261Z,15.47
2018-12-08T16:32:37.393Z,15.50
2018-12-08T16:35:06.488Z,15.17
2018-12-08T16:37:35.689Z,17.90
2018-12-08T16:40:05.161Z,16.93
2018-12-08T16:42:34.183Z,17.33
2018-12-08T16:45:03.412Z,21.93
2018-12-08T16:47:32.454Z,28.57
2018-12-08T16:50:01.564Z,36.00
2018-12-08T16:52:30.779Z,40.57
2018-12-08T16:54:59.873Z,45.30
2018-12-08T16:57:28.939Z,46.10
2018-12-08T16:59:58.157Z,38.60
2018-12-08T17:02:27.353Z,23.27
2018-12-08T17:04:56.657Z,29.00
2018-12-08T17:07:26.001Z,37.70
2018-12-08T17:09:55.219Z,45.07
2018-12-08T17:12:24.590Z,45.90
2018-12-08T17:14:54.103Z,30.67
2018-12-08T17:17:23.287Z,41.80
2018-12-08T17:19:52.752Z,28.27
2018-12-08T17:22:22.252Z,20.80
2018-12-08T17:24:51.894Z,15.03
2018-12-08T17:27:21.484Z,14.23
2018-12-08T17:29:51.394Z,18.43
2018-12-08T17:32:20.822Z,27.23
2018-12-08T17:34:50.268Z,38.77
2018-12-08T17:37:19.489Z,44.80
2018-12-08T17:39:48.717Z,40.10
2018-12-08T17:42:17.909Z,30.77
2018-12-08T17:44:46.951Z,40.40
2018-12-08T17:47:15.980Z,37.63
2018-12-08T17:49:45.100Z,27.50
2018-12-08T17:52:14.784Z,19.93
2018-12-08T17:54:43.785Z,36.97
2018-12-08T17:57:12.908Z,31.13
2018-12-08T17:59:41.886Z,24.43
2018-12-08T18:02:12.441Z,25.03
2018-12-08T18:04:41.754Z,33.97
2018-12-08T18:07:10.802Z,22.63
2018-12-08T18:09:39.831Z,36.10
2018-12-08T18:12:08.888Z,27.80
2018-12-08T18:14:37.940Z,25.07
2018-12-08T18:17:07.035Z,38.93
2018-12-08T18:19:36.249Z,45.27
2018-12-08T18:22:05.694Z,52.27
2018-12-08T18:24:34.689Z,39.77
2018-12-08T18:27:03.895Z,16.10
2018-12-08T18:29:32.925Z,18.47
2018-12-08T18:32:02.138Z,15.97
2018-12-08T18:34:31.256Z,19.03
2018-12-08T18:37:00.417Z,21.00
2018-12-08T18:39:29.651Z,33.60
2018-12-08T18:42:00.817Z,46.07
2018-12-08T18:44:29.842Z,34.93
2018-12-08T18:46:58.894Z,18.97
2018-12-08T18:49:28.058Z,15.43
2018-12-08T18:51:57.260Z,16.40
2018-12-08T18:54:26.434Z,32.50
2018-12-08T18:56:55.969Z,31.70
2018-12-08T18:59:25.459Z,16.60
2018-12-08T19:01:54.595Z,16.27
2018-12-08T19:04:23.598Z,15.50
2018-12-08T19:06:52.906Z,13.80
2018-12-08T19:09:23.357Z,24.07
2018-12-08T19:11:52.675Z,15.50
2018-12-08T19:14:22.008Z,17.73
2018-12-08T19:16:51.485Z,19.87
2018-12-08T19:19:20.993Z,13.33
2018-12-08T19:21:50.502Z,13.20
2018-12-08T19:24:19.999Z,13.67
2018-12-08T19:26:49.277Z,14.43
2018-12-08T19:29:18.741Z,24.57
2018-12-08T19:31:48.180Z,26.13
2018-12-08T19:34:17.711Z,35.53
2018-12-08T19:36:47.309Z,21.53
2018-12-08T19:39:17.034Z,17.73
2018-12-08T19:41:47.751Z,13.33
2018-12-08T19:44:18.088Z,13.80
2018-12-08T19:46:47.222Z,22.70
2018-12-08T19:49:16.314Z,26.43
2018-12-08T19:51:45.445Z,21.37
2018-12-08T19:54:14.445Z,19.93
2018-12-08T19:56:43.485Z,16.63
2018-12-08T19:59:12.494Z,12.50
2018-12-08T20:01:42.988Z,16.00
2018-12-08T20:04:12.436Z,28.40
2018-12-08T20:06:41.950Z,26.67
2018-12-08T20:09:11.082Z,27.13
2018-12-08T20:11:40.380Z,26.20
2018-12-08T20:14:09.548Z,29.27
2018-12-08T20:16:38.971Z,25.10
2018-12-08T20:19:08.093Z,25.27
2018-12-08T20:21:37.241Z,30.03
2018-12-08T20:24:06.428Z,39.47
2018-12-08T20:26:35.474Z,34.30
2018-12-08T20:29:06.489Z,25.23
2018-12-08T20:31:35.751Z,17.57
2018-12-08T20:34:04.841Z,18.53
2018-12-08T20:36:33.890Z,15.57
2018-12-08T20:39:03.249Z,17.60
2018-12-08T20:41:34.806Z,18.97
2018-12-08T20:44:03.901Z,18.43
2018-12-08T20:46:32.982Z,26.07
2018-12-08T20:49:02.121Z,22.73
2018-12-08T20:51:31.186Z,19.97
2018-12-08T20:54:00.367Z,16.63
2018-12-08T20:56:29.455Z,19.37
2018-12-08T20:58:58.457Z,16.57
2018-12-08T21:01:27.493Z,17.67
2018-12-08T21:03:57.150Z,19.83
2018-12-08T21:06:26.181Z,18.77
2018-12-08T21:08:55.397Z,16.17
2018-12-08T21:11:24.462Z,15.70
2018-12-08T21:13:53.671Z,14.87
2018-12-08T21:16:22.692Z,22.73
2018-12-08T21:18:51.742Z,23.43
2018-12-08T21:21:20.797Z,19.90
2018-12-08T21:23:49.825Z,19.97
2018-12-08T21:26:18.874Z,18.33
2018-12-08T21:28:48.021Z,19.93
2018-12-08T21:31:17.152Z,23.83
2018-12-08T21:33:46.183Z,23.43
2018-12-08T21:36:15.330Z,24.93
2018-12-08T21:38:44.337Z,26.40
2018-12-08T21:41:13.497Z,26.30
2018-12-08T21:43:42.576Z,20.47
2018-12-08T21:46:11.663Z,17.30
2018-12-08T21:48:40.757Z,18.73
2018-12-08T21:51:09.786Z,18.63
2018-12-08T21:53:38.902Z,20.07
2018-12-08T21:56:08.020Z,20.57
2018-12-08T21:58:37.079Z,25.00
2018-12-08T22:01:06.201Z,18.93
2018-12-08T22:03:35.208Z,18.03
2018-12-08T22:06:04.226Z,18.93
2018-12-08T22:08:33.263Z,26.10
2018-12-08T22:11:02.400Z,18.43
2018-12-08T22:13:31.445Z,19.30
2018-12-08T22:16:00.544Z,22.83
2018-12-08T22:18:29.662Z,19.53
2018-12-08T22:20:58.758Z,19.27
2018-12-08T22:23:27.801Z,21.37
2018-12-08T22:25:56.774Z,23.77
2018-12-08T22:28:25.764Z,26.90
2018-12-08T22:30:54.795Z,20.07
2018-12-08T22:33:23.815Z,20.80
2018-12-08T22:35:52.936Z,18.57
2018-12-08T22:38:21.925Z,17.37
2018-12-08T22:40:51.306Z,18.87
2018-12-08T22:43:20.617Z,19.40
2018-12-08T22:45:49.887Z,17.33
2018-12-08T22:48:19.240Z,17.87
2018-12-08T22:50:48.599Z,18.90
2018-12-08T22:53:18.006Z,17.53
2018-12-08T22:55:52.952Z,14.77
2018-12-08T22:58:22.317Z,15.70
2018-12-08T23:00:52.833Z,17.53
2018-12-08T23:03:22.239Z,16.87
2018-12-08T23:05:51.577Z,15.63
2018-12-08T23:08:20.898Z,16.63
2018-12-08T23:10:50.305Z,19.20
2018-12-08T23:13:19.656Z,17.67
2018-12-08T23:15:49.007Z,17.20
2018-12-08T23:18:18.119Z,22.70
2018-12-08T23:20:47.256Z,18.00
2018-12-08T23:23:16.259Z,16.43
2018-12-08T23:25:45.373Z,20.40
2018-12-08T23:28:14.391Z,17.50
2018-12-08T23:30:43.755Z,14.27
2018-12-08T23:33:12.809Z,14.50
2018-12-08T23:35:41.940Z,15.00
2018-12-08T23:38:11.404Z,15.07
2018-12-08T23:40:40.436Z,14.50
2018-12-08T23:43:09.504Z,16.00
2018-12-08T23:45:38.615Z,16.73
2018-12-08T23:48:07.640Z,13.67
2018-12-08T23:50:36.673Z,12.57
2018-12-08T23:53:05.937Z,13.53
2018-12-08T23:55:34.968Z,15.07
2018-12-08T23:58:03.977Z,15.30
